sensor_id;sensor_type;location;lat;lon;timestamp;pressure;altitude;pressure_sealevel;temperature;humidity
48644;BME280;34928;37.302;-121.984;2023-02-23T00:04:03;100284.0;;;24.89;17.30
48644;BME280;34928;37.302;-121.984;2023-02-23T00:14:07;100270.0;;;24.84;17.28
48644;BME280;34928;37.302;-121.984;2023-02-23T00:24:13;100274.0;;;24.74;17.30
48644;BME280;34928;37.302;-121.984;2023-02-23T00:34:19;100269.0;;;24.95;17.23
48644;BME280;34928;37.302;-121.984;2023-02-23T00:44:23;100272.0;;;24.59;17.25
48644;BME280;34928;37.302;-121.984;2023-02-23T00:54:27;100281.0;;;24.55;17.21
48644;BME280;34928;37.302;-121.984;2023-02-23T01:04:32;100287.0;;;24.54;17.20
48644;BME280;34928;37.302;-121.984;2023-02-23T01:14:37;100285.0;;;24.85;16.92
48644;BME280;34928;37.302;-121.984;2023-02-23T01:24:42;100283.0;;;25.05;17.05
48644;BME280;34928;37.302;-121.984;2023-02-23T01:34:48;100289.0;;;25.33;17.09
48644;BME280;34928;37.302;-121.984;2023-02-23T01:55:08;100273.0;;;25.78;17.01
48644;BME280;34928;37.302;-121.984;2023-02-23T02:05:12;100272.0;;;25.86;17.00
48644;BME280;34928;37.302;-121.984;2023-02-23T02:15:17;100273.0;;;26.03;16.95
48644;BME280;34928;37.302;-121.984;2023-02-23T02:25:38;100287.0;;;26.12;17.04
48644;BME280;34928;37.302;-121.984;2023-02-23T02:46:07;100296.0;;;26.12;17.08
48644;BME280;34928;37.302;-121.984;2023-02-23T02:56:20;100297.0;;;26.40;16.75
48644;BME280;34928;37.302;-121.984;2023-02-23T03:06:30;100285.0;;;26.41;16.79
48644;BME280;34928;37.302;-121.984;2023-02-23T03:16:44;100295.0;;;26.30;16.89
48644;BME280;34928;37.302;-121.984;2023-02-23T03:26:55;100310.0;;;26.54;16.90
48644;BME280;34928;37.302;-121.984;2023-02-23T03:37:09;100328.0;;;26.56;17.00
48644;BME280;34928;37.302;-121.984;2023-02-23T03:47:20;100336.0;;;26.38;16.83
48644;BME280;34928;37.302;-121.984;2023-02-23T03:57:31;100347.0;;;26.67;16.84
48644;BME280;34928;37.302;-121.984;2023-02-23T04:07:39;100346.0;;;26.55;17.07
48644;BME280;34928;37.302;-121.984;2023-02-23T04:17:42;100344.0;;;26.87;17.22
48644;BME280;34928;37.302;-121.984;2023-02-23T04:27:47;100362.0;;;26.71;17.19
48644;BME280;34928;37.302;-121.984;2023-02-23T04:37:52;100383.0;;;26.60;17.15
48644;BME280;34928;37.302;-121.984;2023-02-23T04:47:57;100382.0;;;26.57;16.98
48644;BME280;34928;37.302;-121.984;2023-02-23T04:58:02;100380.0;;;26.82;17.11
48644;BME280;34928;37.302;-121.984;2023-02-23T05:08:07;100391.0;;;27.13;17.33
48644;BME280;34928;37.302;-121.984;2023-02-23T05:18:12;100401.0;;;26.58;17.60
48644;BME280;34928;37.302;-121.984;2023-02-23T05:28:17;100405.0;;;27.33;17.25
48644;BME280;34928;37.302;-121.984;2023-02-23T05:38:22;100409.0;;;26.92;17.39
48644;BME280;34928;37.302;-121.984;2023-02-23T05:48:27;100425.0;;;26.72;17.20
48644;BME280;34928;37.302;-121.984;2023-02-23T05:58:32;100436.0;;;26.68;17.13
48644;BME280;34928;37.302;-121.984;2023-02-23T06:08:38;100440.0;;;27.21;17.10
48644;BME280;34928;37.302;-121.984;2023-02-23T06:18:42;100440.0;;;26.48;16.96
48644;BME280;34928;37.302;-121.984;2023-02-23T06:28:48;100439.0;;;26.94;17.52
48644;BME280;34928;37.302;-121.984;2023-02-23T06:38:55;100436.0;;;26.98;17.23
48644;BME280;34928;37.302;-121.984;2023-02-23T06:49:04;100446.0;;;26.43;17.33
48644;BME280;34928;37.302;-121.984;2023-02-23T06:59:07;100443.0;;;26.56;17.67
48644;BME280;34928;37.302;-121.984;2023-02-23T07:09:12;100438.0;;;26.25;17.18
48644;BME280;34928;37.302;-121.984;2023-02-23T07:19:17;100440.0;;;26.81;17.45
48644;BME280;34928;37.302;-121.984;2023-02-23T07:29:23;100436.0;;;26.17;17.03
48644;BME280;34928;37.302;-121.984;2023-02-23T07:39:28;100443.0;;;26.68;17.34
48644;BME280;34928;37.302;-121.984;2023-02-23T07:49:33;100458.0;;;26.55;17.18
48644;BME280;34928;37.302;-121.984;2023-02-23T07:59:37;100462.0;;;26.75;17.19
48644;BME280;34928;37.302;-121.984;2023-02-23T08:09:42;100451.0;;;26.61;17.43
48644;BME280;34928;37.302;-121.984;2023-02-23T08:19:47;100445.0;;;26.62;17.12
48644;BME280;34928;37.302;-121.984;2023-02-23T08:29:55;100456.0;;;26.80;17.43
48644;BME280;34928;37.302;-121.984;2023-02-23T08:40:02;100446.0;;;26.50;16.89
48644;BME280;34928;37.302;-121.984;2023-02-23T08:50:08;100452.0;;;26.92;16.93
48644;BME280;34928;37.302;-121.984;2023-02-23T09:00:13;100444.0;;;26.35;16.91
48644;BME280;34928;37.302;-121.984;2023-02-23T09:10:18;100449.0;;;26.71;17.02
48644;BME280;34928;37.302;-121.984;2023-02-23T09:20:22;100455.0;;;26.29;17.04
48644;BME280;34928;37.302;-121.984;2023-02-23T09:30:27;100457.0;;;26.23;16.95
48644;BME280;34928;37.302;-121.984;2023-02-23T09:40:43;100466.0;;;26.48;17.19
48644;BME280;34928;37.302;-121.984;2023-02-23T09:50:55;100473.0;;;26.07;17.24
48644;BME280;34928;37.302;-121.984;2023-02-23T10:11:32;100483.0;;;25.86;16.88
48644;BME280;34928;37.302;-121.984;2023-02-23T10:21:41;100472.0;;;25.55;16.94
48644;BME280;34928;37.302;-121.984;2023-02-23T10:31:50;100464.0;;;25.31;16.98
48644;BME280;34928;37.302;-121.984;2023-02-23T10:41:59;100456.0;;;25.46;17.04
48644;BME280;34928;37.302;-121.984;2023-02-23T10:52:10;100452.0;;;25.15;17.07
48644;BME280;34928;37.302;-121.984;2023-02-23T11:02:24;100453.0;;;25.15;17.11
48644;BME280;34928;37.302;-121.984;2023-02-23T11:12:37;100447.0;;;24.79;17.23
48644;BME280;34928;37.302;-121.984;2023-02-23T11:22:42;100435.0;;;25.00;17.16
48644;BME280;34928;37.302;-121.984;2023-02-23T11:32:50;100430.0;;;24.73;17.25
48644;BME280;34928;37.302;-121.984;2023-02-23T11:43:06;100425.0;;;24.51;17.32
48644;BME280;34928;37.302;-121.984;2023-02-23T11:53:14;100432.0;;;24.32;17.39
48644;BME280;34928;37.302;-121.984;2023-02-23T12:03:21;100443.0;;;24.11;17.48
48644;BME280;34928;37.302;-121.984;2023-02-23T12:13:33;100451.0;;;24.16;17.51
48644;BME280;34928;37.302;-121.984;2023-02-23T12:23:40;100453.0;;;24.01;17.47
48644;BME280;34928;37.302;-121.984;2023-02-23T12:33:50;100451.0;;;24.09;17.51
48644;BME280;34928;37.302;-121.984;2023-02-23T12:44:01;100462.0;;;23.97;17.54
48644;BME280;34928;37.302;-121.984;2023-02-23T12:54:09;100468.0;;;23.92;17.57
48644;BME280;34928;37.302;-121.984;2023-02-23T13:14:47;100483.0;;;23.62;17.93
48644;BME280;34928;37.302;-121.984;2023-02-23T13:24:59;100491.0;;;24.25;18.27
48644;BME280;34928;37.302;-121.984;2023-02-23T13:35:14;100489.0;;;24.65;18.20
48644;BME280;34928;37.302;-121.984;2023-02-23T13:55:46;100492.0;;;24.85;18.09
48644;BME280;34928;37.302;-121.984;2023-02-23T14:05:58;100495.0;;;25.13;18.34
48644;BME280;34928;37.302;-121.984;2023-02-23T14:16:14;100504.0;;;25.65;18.03
48644;BME280;34928;37.302;-121.984;2023-02-23T14:36:42;100504.0;;;25.60;18.13
48644;BME280;34928;37.302;-121.984;2023-02-23T14:46:52;100525.0;;;26.02;18.06
48644;BME280;34928;37.302;-121.984;2023-02-23T14:57:00;100515.0;;;25.80;17.89
48644;BME280;34928;37.302;-121.984;2023-02-23T15:07:13;100522.0;;;26.15;17.36
48644;BME280;34928;37.302;-121.984;2023-02-23T15:17:21;100534.0;;;26.28;17.85
48644;BME280;34928;37.302;-121.984;2023-02-23T15:27:35;100549.0;;;26.25;17.54
48644;BME280;34928;37.302;-121.984;2023-02-23T15:37:45;100565.0;;;26.47;17.38
48644;BME280;34928;37.302;-121.984;2023-02-23T15:47:53;100592.0;;;26.49;17.47
48644;BME280;34928;37.302;-121.984;2023-02-23T15:57:59;100591.0;;;26.55;17.31
48644;BME280;34928;37.302;-121.984;2023-02-23T16:08:04;100586.0;;;26.57;16.86
48644;BME280;34928;37.302;-121.984;2023-02-23T16:18:12;100584.0;;;26.44;17.11
48644;BME280;34928;37.302;-121.984;2023-02-23T16:28:18;100586.0;;;26.28;17.23
48644;BME280;34928;37.302;-121.984;2023-02-23T16:38:25;100591.0;;;26.02;17.27
48644;BME280;34928;37.302;-121.984;2023-02-23T16:48:32;100593.0;;;25.93;17.43
48644;BME280;34928;37.302;-121.984;2023-02-23T16:58:38;100596.0;;;25.78;17.45
48644;BME280;34928;37.302;-121.984;2023-02-23T17:08:43;100596.0;;;25.80;17.37
48644;BME280;34928;37.302;-121.984;2023-02-23T17:18:47;100596.0;;;25.72;17.38
48644;BME280;34928;37.302;-121.984;2023-02-23T17:28:52;100607.0;;;25.54;17.47
48644;BME280;34928;37.302;-121.984;2023-02-23T17:38:57;100608.0;;;25.58;17.39
48644;BME280;34928;37.302;-121.984;2023-02-23T17:49:02;100608.0;;;25.47;17.43
48644;BME280;34928;37.302;-121.984;2023-02-23T17:59:07;100602.0;;;25.47;17.37
48644;BME280;34928;37.302;-121.984;2023-02-23T18:09:12;100594.0;;;24.85;17.85
48644;BME280;34928;37.302;-121.984;2023-02-23T18:19:17;100589.0;;;25.17;17.66
48644;BME280;34928;37.302;-121.984;2023-02-23T18:29:22;100585.0;;;25.59;17.76
48644;BME280;34928;37.302;-121.984;2023-02-23T18:39:28;100584.0;;;25.79;17.89
48644;BME280;34928;37.302;-121.984;2023-02-23T18:49:33;100579.0;;;25.53;17.75
48644;BME280;34928;37.302;-121.984;2023-02-23T18:59:38;100570.0;;;25.48;17.78
48644;BME280;34928;37.302;-121.984;2023-02-23T19:09:43;100568.0;;;25.38;17.83
48644;BME280;34928;37.302;-121.984;2023-02-23T19:19:48;100569.0;;;25.72;17.85
48644;BME280;34928;37.302;-121.984;2023-02-23T19:29:53;100559.0;;;25.37;17.99
48644;BME280;34928;37.302;-121.984;2023-02-23T19:39:57;100555.0;;;25.53;17.89
48644;BME280;34928;37.302;-121.984;2023-02-23T19:50:03;100532.0;;;25.50;17.91
48644;BME280;34928;37.302;-121.984;2023-02-23T20:00:09;100519.0;;;25.51;17.89
48644;BME280;34928;37.302;-121.984;2023-02-23T20:10:12;100516.0;;;25.61;17.79
48644;BME280;34928;37.302;-121.984;2023-02-23T20:20:18;100496.0;;;25.55;17.85
48644;BME280;34928;37.302;-121.984;2023-02-23T20:30:22;100471.0;;;25.67;17.79
48644;BME280;34928;37.302;-121.984;2023-02-23T20:40:27;100455.0;;;25.54;17.90
48644;BME280;34928;37.302;-121.984;2023-02-23T20:50:32;100444.0;;;25.61;17.88
48644;BME280;34928;37.302;-121.984;2023-02-23T21:00:38;100437.0;;;25.42;18.10
48644;BME280;34928;37.302;-121.984;2023-02-23T21:10:42;100425.0;;;25.48;18.09
48644;BME280;34928;37.302;-121.984;2023-02-23T21:20:47;100416.0;;;25.40;18.23
48644;BME280;34928;37.302;-121.984;2023-02-23T21:30:52;100401.0;;;25.38;18.26
48644;BME280;34928;37.302;-121.984;2023-02-23T21:40:57;100397.0;;;25.40;18.31
48644;BME280;34928;37.302;-121.984;2023-02-23T21:51:04;100399.0;;;25.46;18.28
48644;BME280;34928;37.302;-121.984;2023-02-23T22:01:12;100393.0;;;25.49;18.21
48644;BME280;34928;37.302;-121.984;2023-02-23T22:11:21;100381.0;;;25.67;18.24
48644;BME280;34928;37.302;-121.984;2023-02-23T22:21:28;100364.0;;;25.78;18.16
48644;BME280;34928;37.302;-121.984;2023-02-23T22:31:33;100348.0;;;25.66;18.36
48644;BME280;34928;37.302;-121.984;2023-02-23T22:41:37;100332.0;;;25.50;18.82
48644;BME280;34928;37.302;-121.984;2023-02-23T22:51:43;100336.0;;;25.75;19.61
48644;BME280;34928;37.302;-121.984;2023-02-23T23:01:47;100346.0;;;25.76;19.59
48644;BME280;34928;37.302;-121.984;2023-02-23T23:11:52;100320.0;;;25.60;19.46
48644;BME280;34928;37.302;-121.984;2023-02-23T23:21:57;100323.0;;;25.84;19.10
48644;BME280;34928;37.302;-121.984;2023-02-23T23:32:02;100310.0;;;26.08;19.03
48644;BME280;34928;37.302;-121.984;2023-02-23T23:42:08;100299.0;;;25.72;18.94
48644;BME280;34928;37.302;-121.984;2023-02-23T23:52:13;100284.0;;;25.75;18.77
